Foxholm, North Dakota
Current Conditions -  °F | °C
As of 2:58 PM on Thursday 23 Oct 2014 (Local Time) from KMIB Reporting Station
Clear Clear  
Wind Chill: 68°   Ceiling: Unl
Heat Index: 68°   Visibility: 10mi
Dew Point: 33°   Wind: 13mph
Humidity: 27%   Direction: 220°SW
Pressure: 29.75"   Gusts: NA
Location:  48.3281°N, 101.856°W
Report Text: KMIB 231958Z AUTO 22011KT 10SM CLR 20/01 A2975 RMK AO2 SLP081 T02000006 $
Loading
Personal Weather Stations






























Interactive Weather Map
Tropical Storm Tracking
New forecast layout! Learn more

10-Day Weather Forecast

Advertisements
Track Severe Weather on mobile